sensor_id;sensor_type;location;lat;lon;timestamp;pressure;altitude;pressure_sealevel;temperature;humidity
66857;BME280;53766;50.280;19.160;2022-09-03T00:01:24;98696.78;;;22.41;33.11
66857;BME280;53766;50.280;19.160;2022-09-03T00:03:58;98691.41;;;22.41;33.18
66857;BME280;53766;50.280;19.160;2022-09-03T00:06:39;98694.09;;;22.41;33.17
66857;BME280;53766;50.280;19.160;2022-09-03T00:09:16;98692.44;;;22.40;33.08
66857;BME280;53766;50.280;19.160;2022-09-03T00:11:54;98692.44;;;22.40;33.05
66857;BME280;53766;50.280;19.160;2022-09-03T00:14:35;98690.81;;;22.39;33.14
66857;BME280;53766;50.280;19.160;2022-09-03T00:17:18;98689.16;;;22.38;33.10
66857;BME280;53766;50.280;19.160;2022-09-03T00:19:58;98695.34;;;22.38;33.18
66857;BME280;53766;50.280;19.160;2022-09-03T00:22:44;98689.16;;;22.38;33.09
66857;BME280;53766;50.280;19.160;2022-09-03T00:25:17;98682.16;;;22.37;33.15
66857;BME280;53766;50.280;19.160;2022-09-03T00:27:53;98684.84;;;22.37;33.02
66857;BME280;53766;50.280;19.160;2022-09-03T00:30:21;98674.31;;;22.35;33.15
66857;BME280;53766;50.280;19.160;2022-09-03T00:32:58;98680.50;;;22.36;33.03
66857;BME280;53766;50.280;19.160;2022-09-03T00:35:43;98675.97;;;22.36;33.09
66857;BME280;53766;50.280;19.160;2022-09-03T00:38:13;98665.25;;;22.36;32.94
66857;BME280;53766;50.280;19.160;2022-09-03T00:49:06;98671.84;;;22.34;33.06
66857;BME280;53766;50.280;19.160;2022-09-03T00:52:22;98671.84;;;22.34;32.97
66857;BME280;53766;50.280;19.160;2022-09-03T01:00:16;98669.41;;;22.32;33.03
66857;BME280;53766;50.280;19.160;2022-09-03T01:14:51;98680.97;;;22.33;33.10
66857;BME280;53766;50.280;19.160;2022-09-03T01:20:06;98675.00;;;22.31;33.05
66857;BME280;53766;50.280;19.160;2022-09-03T01:37:11;98688.63;;;22.29;33.11
66857;BME280;53766;50.280;19.160;2022-09-03T01:39:49;98690.50;;;22.29;33.02
66857;BME280;53766;50.280;19.160;2022-09-03T01:59:41;98687.44;;;22.25;32.95
66857;BME280;53766;50.280;19.160;2022-09-03T02:02:19;98688.28;;;22.26;32.99
66857;BME280;53766;50.280;19.160;2022-09-03T02:05:18;98678.56;;;22.25;32.96
66857;BME280;53766;50.280;19.160;2022-09-03T02:07:49;98677.97;;;22.23;32.77
66857;BME280;53766;50.280;19.160;2022-09-03T02:10:24;98682.31;;;22.24;32.85
66857;BME280;53766;50.280;19.160;2022-09-03T02:13:29;98679.00;;;22.22;32.91
66857;BME280;53766;50.280;19.160;2022-09-03T02:16:02;98675.28;;;22.23;32.95
66857;BME280;53766;50.280;19.160;2022-09-03T02:18:37;98685.19;;;22.22;32.81
66857;BME280;53766;50.280;19.160;2022-09-03T02:21:08;98686.00;;;22.23;32.88
66857;BME280;53766;50.280;19.160;2022-09-03T02:23:38;98680.66;;;22.23;32.91
66857;BME280;53766;50.280;19.160;2022-09-03T02:26:08;98683.56;;;22.21;33.03
66857;BME280;53766;50.280;19.160;2022-09-03T02:28:37;98679.00;;;22.22;32.83
66857;BME280;53766;50.280;19.160;2022-09-03T02:31:05;98684.34;;;22.22;32.87
66857;BME280;53766;50.280;19.160;2022-09-03T02:33:37;98683.56;;;22.21;32.99
66857;BME280;53766;50.280;19.160;2022-09-03T02:36:08;98691.59;;;22.21;33.25
66857;BME280;53766;50.280;19.160;2022-09-03T02:38:36;98690.75;;;22.21;32.95
66857;BME280;53766;50.280;19.160;2022-09-03T02:41:04;98687.25;;;22.20;32.86
66857;BME280;53766;50.280;19.160;2022-09-03T02:43:45;98686.44;;;22.19;32.95
66857;BME280;53766;50.280;19.160;2022-09-03T02:46:23;98694.50;;;22.19;32.92
66857;BME280;53766;50.280;19.160;2022-09-03T02:48:54;98693.44;;;22.21;32.94
66857;BME280;53766;50.280;19.160;2022-09-03T02:51:22;98686.44;;;22.19;32.97
66857;BME280;53766;50.280;19.160;2022-09-03T02:53:49;98690.16;;;22.18;32.84
66857;BME280;53766;50.280;19.160;2022-09-03T02:56:17;98691.81;;;22.19;32.92
66857;BME280;53766;50.280;19.160;2022-09-03T02:58:45;98698.19;;;22.18;33.06
66857;BME280;53766;50.280;19.160;2022-09-03T03:01:12;98700.88;;;22.18;33.04
66857;BME280;53766;50.280;19.160;2022-09-03T03:03:51;98691.22;;;22.17;33.00
66857;BME280;53766;50.280;19.160;2022-09-03T03:06:19;98691.22;;;22.17;33.18
66857;BME280;53766;50.280;19.160;2022-09-03T03:08:48;98691.81;;;22.19;33.16
66857;BME280;53766;50.280;19.160;2022-09-03T03:11:17;98690.16;;;22.18;32.98
66857;BME280;53766;50.280;19.160;2022-09-03T03:13:46;98690.16;;;22.18;33.18
66857;BME280;53766;50.280;19.160;2022-09-03T03:16:15;98690.16;;;22.18;33.04
66857;BME280;53766;50.280;19.160;2022-09-03T03:18:43;98686.88;;;22.16;33.05
66857;BME280;53766;50.280;19.160;2022-09-03T03:21:14;98693.88;;;22.17;33.01
66857;BME280;53766;50.280;19.160;2022-09-03T03:23:43;98685.84;;;22.17;33.00
66857;BME280;53766;50.280;19.160;2022-09-03T03:26:13;98693.88;;;22.17;33.11
66857;BME280;53766;50.280;19.160;2022-09-03T03:28:41;98693.09;;;22.17;33.04
66857;BME280;53766;50.280;19.160;2022-09-03T03:31:17;98686.88;;;22.16;33.12
66857;BME280;53766;50.280;19.160;2022-09-03T03:33:53;98699.25;;;22.17;33.21
66857;BME280;53766;50.280;19.160;2022-09-03T03:36:22;98713.69;;;22.16;33.25
66857;BME280;53766;50.280;19.160;2022-09-03T03:38:55;98715.34;;;22.17;33.10
66857;BME280;53766;50.280;19.160;2022-09-03T03:41:31;98708.34;;;22.16;33.12
66857;BME280;53766;50.280;19.160;2022-09-03T03:44:01;98702.97;;;22.16;33.11
66857;BME280;53766;50.280;19.160;2022-09-03T03:46:37;98700.28;;;22.16;33.18
66857;BME280;53766;50.280;19.160;2022-09-03T03:49:06;98701.94;;;22.17;33.21
66857;BME280;53766;50.280;19.160;2022-09-03T03:51:34;98692.22;;;22.16;33.32
66857;BME280;53766;50.280;19.160;2022-09-03T03:54:04;98698.44;;;22.17;33.19
66857;BME280;53766;50.280;19.160;2022-09-03T03:56:33;98695.97;;;22.15;33.22
66857;BME280;53766;50.280;19.160;2022-09-03T03:59:01;98696.78;;;22.16;33.23
66857;BME280;53766;50.280;19.160;2022-09-03T04:01:29;98691.41;;;22.16;33.14
66857;BME280;53766;50.280;19.160;2022-09-03T04:03:57;98694.31;;;22.14;33.15
66857;BME280;53766;50.280;19.160;2022-09-03T04:06:27;98694.31;;;22.14;33.32
66857;BME280;53766;50.280;19.160;2022-09-03T04:08:54;98696.19;;;22.14;33.32
66857;BME280;53766;50.280;19.160;2022-09-03T04:11:23;98691.63;;;22.14;33.38
66857;BME280;53766;50.280;19.160;2022-09-03T04:13:51;98694.31;;;22.14;33.29
66857;BME280;53766;50.280;19.160;2022-09-03T04:16:26;98687.31;;;22.13;33.35
66857;BME280;53766;50.280;19.160;2022-09-03T04:18:55;98682.56;;;22.15;33.42
66857;BME280;53766;50.280;19.160;2022-09-03T04:21:25;98681.75;;;22.15;33.32
66857;BME280;53766;50.280;19.160;2022-09-03T04:23:56;98683.59;;;22.14;33.47
66857;BME280;53766;50.280;19.160;2022-09-03T04:26:28;98688.13;;;22.14;33.40
66857;BME280;53766;50.280;19.160;2022-09-03T04:29:05;98684.44;;;22.15;33.46
66857;BME280;53766;50.280;19.160;2022-09-03T04:31:34;98692.69;;;22.13;33.34
66857;BME280;53766;50.280;19.160;2022-09-03T04:34:03;98692.69;;;22.13;33.59
66857;BME280;53766;50.280;19.160;2022-09-03T04:36:33;98693.50;;;22.14;33.49
66857;BME280;53766;50.280;19.160;2022-09-03T04:39:01;98698.06;;;22.13;33.36
66857;BME280;53766;50.280;19.160;2022-09-03T04:41:30;98701.56;;;22.14;33.49
66857;BME280;53766;50.280;19.160;2022-09-03T04:43:58;98705.88;;;22.15;33.72
66857;BME280;53766;50.280;19.160;2022-09-03T04:46:27;98709.38;;;22.15;33.65
66857;BME280;53766;50.280;19.160;2022-09-03T04:49:00;98707.50;;;22.16;33.60
66857;BME280;53766;50.280;19.160;2022-09-03T04:51:28;98712.06;;;22.15;33.67
66857;BME280;53766;50.280;19.160;2022-09-03T04:54:00;98717.44;;;22.15;33.65
66857;BME280;53766;50.280;19.160;2022-09-03T04:56:31;98714.75;;;22.15;33.74
66857;BME280;53766;50.280;19.160;2022-09-03T04:59:03;98712.88;;;22.16;33.69
66857;BME280;53766;50.280;19.160;2022-09-03T05:01:33;98713.09;;;22.14;33.69
66857;BME280;53766;50.280;19.160;2022-09-03T05:04:01;98715.78;;;22.14;33.80
66857;BME280;53766;50.280;19.160;2022-09-03T05:06:30;98721.16;;;22.14;33.72
66857;BME280;53766;50.280;19.160;2022-09-03T05:08:58;98720.13;;;22.15;33.89
66857;BME280;53766;50.280;19.160;2022-09-03T05:11:27;98725.47;;;22.15;33.87
66857;BME280;53766;50.280;19.160;2022-09-03T05:13:57;98722.81;;;22.15;33.71
66857;BME280;53766;50.280;19.160;2022-09-03T05:16:26;98733.53;;;22.15;33.76
66857;BME280;53766;50.280;19.160;2022-09-03T05:18:56;98722.81;;;22.15;33.59
66857;BME280;53766;50.280;19.160;2022-09-03T05:21:26;98728.16;;;22.15;33.93
66857;BME280;53766;50.280;19.160;2022-09-03T05:23:55;98724.44;;;22.16;33.87
66857;BME280;53766;50.280;19.160;2022-09-03T05:26:25;98726.09;;;22.17;33.89
66857;BME280;53766;50.280;19.160;2022-09-03T05:28:56;98726.09;;;22.17;33.87
66857;BME280;53766;50.280;19.160;2022-09-03T05:31:27;98738.44;;;22.18;33.92
66857;BME280;53766;50.280;19.160;2022-09-03T05:33:58;98735.75;;;22.18;33.96
66857;BME280;53766;50.280;19.160;2022-09-03T05:36:28;98732.66;;;22.22;34.05
66857;BME280;53766;50.280;19.160;2022-09-03T05:38:57;98745.03;;;22.23;33.83
66857;BME280;53766;50.280;19.160;2022-09-03T05:41:26;98740.28;;;22.25;33.90
66857;BME280;53766;50.280;19.160;2022-09-03T05:43:55;98732.81;;;22.27;34.09
66857;BME280;53766;50.280;19.160;2022-09-03T05:46:26;98726.44;;;22.28;34.05
66857;BME280;53766;50.280;19.160;2022-09-03T05:49:04;98724.34;;;22.30;34.02
66857;BME280;53766;50.280;19.160;2022-09-03T05:51:33;98720.59;;;22.31;33.93
66857;BME280;53766;50.280;19.160;2022-09-03T05:54:02;98725.97;;;22.31;34.02
66857;BME280;53766;50.280;19.160;2022-09-03T05:56:31;98731.13;;;22.32;33.97
66857;BME280;53766;50.280;19.160;2022-09-03T05:59:01;98730.88;;;22.34;34.04
66857;BME280;53766;50.280;19.160;2022-09-03T06:01:32;98728.19;;;22.34;33.99
66857;BME280;53766;50.280;19.160;2022-09-03T06:04:05;98732.09;;;22.38;34.09
66857;BME280;53766;50.280;19.160;2022-09-03T06:06:36;98725.91;;;22.37;34.09
66857;BME280;53766;50.280;19.160;2022-09-03T06:09:06;98724.63;;;22.40;34.06
66857;BME280;53766;50.280;19.160;2022-09-03T06:11:36;98719.25;;;22.40;34.19
66857;BME280;53766;50.280;19.160;2022-09-03T06:14:10;98730.59;;;22.42;34.22
66857;BME280;53766;50.280;19.160;2022-09-03T06:16:43;98724.19;;;22.43;34.25
66857;BME280;53766;50.280;19.160;2022-09-03T06:19:11;98724.81;;;22.45;34.19
66857;BME280;53766;50.280;19.160;2022-09-03T06:21:43;98725.41;;;22.47;34.23
66857;BME280;53766;50.280;19.160;2022-09-03T06:24:16;98720.84;;;22.48;34.22
66857;BME280;53766;50.280;19.160;2022-09-03T06:26:44;98722.47;;;22.49;34.22
66857;BME280;53766;50.280;19.160;2022-09-03T06:29:13;98722.25;;;22.50;34.30
66857;BME280;53766;50.280;19.160;2022-09-03T06:31:41;98726.56;;;22.51;34.21
66857;BME280;53766;50.280;19.160;2022-09-03T06:34:09;98723.66;;;22.53;34.39
66857;BME280;53766;50.280;19.160;2022-09-03T06:36:38;98726.94;;;22.55;34.39
66857;BME280;53766;50.280;19.160;2022-09-03T06:39:07;98728.59;;;22.56;34.38
66857;BME280;53766;50.280;19.160;2022-09-03T06:41:35;98726.50;;;22.58;34.46
66857;BME280;53766;50.280;19.160;2022-09-03T06:44:05;98725.47;;;22.59;34.52
66857;BME280;53766;50.280;19.160;2022-09-03T06:46:39;98731.44;;;22.61;34.54
66857;BME280;53766;50.280;19.160;2022-09-03T06:49:09;98725.84;;;22.63;34.68
66857;BME280;53766;50.280;19.160;2022-09-03T06:51:38;98729.34;;;22.63;34.67
66857;BME280;53766;50.280;19.160;2022-09-03T06:54:08;98726.44;;;22.65;34.73
66857;BME280;53766;50.280;19.160;2022-09-03T06:56:38;98728.06;;;22.66;35.07
66857;BME280;53766;50.280;19.160;2022-09-03T06:59:12;98738.34;;;22.69;35.16
66857;BME280;53766;50.280;19.160;2022-09-03T07:01:41;98748.66;;;22.72;35.26
66857;BME280;53766;50.280;19.160;2022-09-03T07:04:13;98739.53;;;22.73;35.35
66857;BME280;53766;50.280;19.160;2022-09-03T07:06:45;98740.13;;;22.75;35.55
66857;BME280;53766;50.280;19.160;2022-09-03T07:09:13;98751.47;;;22.77;35.56
66857;BME280;53766;50.280;19.160;2022-09-03T07:11:42;98748.56;;;22.78;35.41
66857;BME280;53766;50.280;19.160;2022-09-03T07:14:19;98747.75;;;22.78;35.29
66857;BME280;53766;50.280;19.160;2022-09-03T07:16:48;98752.06;;;22.79;35.31
66857;BME280;53766;50.280;19.160;2022-09-03T07:19:16;98750.44;;;22.78;35.49
66857;BME280;53766;50.280;19.160;2022-09-03T07:21:44;98750.44;;;22.78;35.42
66857;BME280;53766;50.280;19.160;2022-09-03T07:24:18;98748.34;;;22.80;35.66
66857;BME280;53766;50.280;19.160;2022-09-03T07:26:48;98749.97;;;22.81;35.87
66857;BME280;53766;50.280;19.160;2022-09-03T07:29:16;98745.22;;;22.83;36.03
66857;BME280;53766;50.280;19.160;2022-09-03T07:31:48;98746.63;;;22.86;36.05
66857;BME280;53766;50.280;19.160;2022-09-03T07:34:19;98732.97;;;22.87;36.08
66857;BME280;53766;50.280;19.160;2022-09-03T07:36:48;98738.94;;;22.89;36.10
66857;BME280;53766;50.280;19.160;2022-09-03T07:39:18;98736.84;;;22.91;36.13
66857;BME280;53766;50.280;19.160;2022-09-03T07:41:46;98736.38;;;22.94;36.20
66857;BME280;53766;50.280;19.160;2022-09-03T07:44:16;98746.69;;;22.97;36.36
66857;BME280;53766;50.280;19.160;2022-09-03T07:46:48;98744.59;;;22.99;36.35
66857;BME280;53766;50.280;19.160;2022-09-03T07:49:18;98747.28;;;22.99;36.48
66857;BME280;53766;50.280;19.160;2022-09-03T07:51:47;98759.22;;;23.04;36.64
66857;BME280;53766;50.280;19.160;2022-09-03T07:54:17;98768.94;;;23.05;36.72
66857;BME280;53766;50.280;19.160;2022-09-03T07:56:44;98763.56;;;23.05;36.70
66857;BME280;53766;50.280;19.160;2022-09-03T07:59:12;98747.44;;;23.05;36.78
66857;BME280;53766;50.280;19.160;2022-09-03T08:01:39;98749.06;;;23.06;36.67
66857;BME280;53766;50.280;19.160;2022-09-03T08:04:08;98745.34;;;23.07;36.86
66857;BME280;53766;50.280;19.160;2022-09-03T08:06:37;98751.53;;;23.07;36.80
66857;BME280;53766;50.280;19.160;2022-09-03T08:09:07;98747.56;;;23.10;36.65
66857;BME280;53766;50.280;19.160;2022-09-03T08:11:37;98761.00;;;23.10;36.74
66857;BME280;53766;50.280;19.160;2022-09-03T08:14:08;98756.22;;;23.12;36.84
66857;BME280;53766;50.280;19.160;2022-09-03T08:16:37;98744.88;;;23.10;36.69
66857;BME280;53766;50.280;19.160;2022-09-03T08:19:06;98758.31;;;23.10;36.71
66857;BME280;53766;50.280;19.160;2022-09-03T08:21:34;98767.19;;;23.10;36.68
66857;BME280;53766;50.280;19.160;2022-09-03T08:24:01;98771.75;;;23.10;36.67
66857;BME280;53766;50.280;19.160;2022-09-03T08:26:33;98767.44;;;23.09;36.59
66857;BME280;53766;50.280;19.160;2022-09-03T08:29:02;98763.09;;;23.08;36.66
66857;BME280;53766;50.280;19.160;2022-09-03T08:31:31;98763.09;;;23.08;36.87
66857;BME280;53766;50.280;19.160;2022-09-03T08:34:00;98766.84;;;23.07;36.71
66857;BME280;53766;50.280;19.160;2022-09-03T08:36:35;98767.88;;;23.06;36.78
66857;BME280;53766;50.280;19.160;2022-09-03T08:39:07;98766.25;;;23.05;36.85
66857;BME280;53766;50.280;19.160;2022-09-03T08:44:43;98766.84;;;23.07;36.69
66857;BME280;53766;50.280;19.160;2022-09-03T08:47:22;98769.53;;;23.07;36.81
66857;BME280;53766;50.280;19.160;2022-09-03T08:55:16;98748.63;;;23.09;37.01
66857;BME280;53766;50.280;19.160;2022-09-03T08:58:12;98740.59;;;23.09;37.06
66857;BME280;53766;50.280;19.160;2022-09-03T09:02:14;98749.66;;;23.08;36.99
66857;BME280;53766;50.280;19.160;2022-09-03T09:04:43;98742.44;;;23.08;37.01
66857;BME280;53766;50.280;19.160;2022-09-03T09:07:27;98741.59;;;23.08;36.78
66857;BME280;53766;50.280;19.160;2022-09-03T09:10:53;98737.88;;;23.09;37.00
66857;BME280;53766;50.280;19.160;2022-09-03T09:16:05;98737.63;;;23.10;36.72
66857;BME280;53766;50.280;19.160;2022-09-03T09:22:02;98735.34;;;23.14;36.92
66857;BME280;53766;50.280;19.160;2022-09-03T09:24:40;98740.72;;;23.14;36.96
66857;BME280;53766;50.280;19.160;2022-09-03T09:27:08;98737.81;;;23.15;36.96
66857;BME280;53766;50.280;19.160;2022-09-03T09:29:45;98740.28;;;23.17;37.08
66857;BME280;53766;50.280;19.160;2022-09-03T09:32:16;98744.00;;;23.16;36.94
66857;BME280;53766;50.280;19.160;2022-09-03T09:34:47;98734.91;;;23.17;36.97
66857;BME280;53766;50.280;19.160;2022-09-03T09:37:19;98733.03;;;23.17;37.13
66857;BME280;53766;50.280;19.160;2022-09-03T09:39:57;98746.19;;;23.19;37.02
66857;BME280;53766;50.280;19.160;2022-09-03T09:42:25;98735.72;;;23.17;37.12
66857;BME280;53766;50.280;19.160;2022-09-03T09:44:56;98740.03;;;23.18;37.24
66857;BME280;53766;50.280;19.160;2022-09-03T09:47:33;98743.53;;;23.19;37.12
66857;BME280;53766;50.280;19.160;2022-09-03T09:50:16;98747.28;;;23.18;37.18
66857;BME280;53766;50.280;19.160;2022-09-03T09:53:00;98748.06;;;23.18;37.27
66857;BME280;53766;50.280;19.160;2022-09-03T09:55:47;98751.81;;;23.17;37.18
66857;BME280;53766;50.280;19.160;2022-09-03T09:58:18;98767.13;;;23.17;37.44
66857;BME280;53766;50.280;19.160;2022-09-03T10:01:20;98766.28;;;23.16;37.39
66857;BME280;53766;50.280;19.160;2022-09-03T10:03:53;98770.03;;;23.15;37.37
66857;BME280;53766;50.280;19.160;2022-09-03T10:06:28;98767.94;;;23.17;37.91
66857;BME280;53766;50.280;19.160;2022-09-03T10:09:19;98751.00;;;23.17;42.29
66857;BME280;53766;50.280;19.160;2022-09-03T10:11:49;98759.28;;;23.15;43.63
66857;BME280;53766;50.280;19.160;2022-09-03T10:14:26;98761.16;;;23.15;44.18
66857;BME280;53766;50.280;19.160;2022-09-03T10:17:37;98754.13;;;23.14;43.51
66857;BME280;53766;50.280;19.160;2022-09-03T10:20:11;98750.84;;;23.12;42.29
66857;BME280;53766;50.280;19.160;2022-09-03T10:25:38;98753.31;;;23.13;45.95
66857;BME280;53766;50.280;19.160;2022-09-03T10:28:09;98756.81;;;23.14;46.26
66857;BME280;53766;50.280;19.160;2022-09-03T10:38:52;98743.69;;;23.06;44.63
66857;BME280;53766;50.280;19.160;2022-09-03T10:41:40;98750.56;;;23.02;45.63
66857;BME280;53766;50.280;19.160;2022-09-03T10:44:52;98755.78;;;22.96;45.21
66857;BME280;53766;50.280;19.160;2022-09-03T10:49:53;98756.25;;;22.93;44.67
66857;BME280;53766;50.280;19.160;2022-09-03T10:52:38;98758.34;;;22.91;45.19
66857;BME280;53766;50.280;19.160;2022-09-03T11:00:48;98762.50;;;22.87;45.54
66857;BME280;53766;50.280;19.160;2022-09-03T11:06:27;98757.34;;;22.86;45.64
66857;BME280;53766;50.280;19.160;2022-09-03T11:09:00;98751.19;;;22.85;46.27
66857;BME280;53766;50.280;19.160;2022-09-03T11:11:42;98746.84;;;22.84;45.86
66857;BME280;53766;50.280;19.160;2022-09-03T11:14:14;98746.03;;;22.84;46.00
66857;BME280;53766;50.280;19.160;2022-09-03T11:16:47;98752.19;;;22.84;46.19
66857;BME280;53766;50.280;19.160;2022-09-03T11:19:33;98743.13;;;22.85;46.39
66857;BME280;53766;50.280;19.160;2022-09-03T11:22:03;98746.03;;;22.84;46.19
66857;BME280;53766;50.280;19.160;2022-09-03T11:24:33;98749.53;;;22.84;47.66
66857;BME280;53766;50.280;19.160;2022-09-03T11:29:51;98746.84;;;22.84;47.53
66857;BME280;53766;50.280;19.160;2022-09-03T11:35:27;98746.84;;;22.84;48.85
66857;BME280;53766;50.280;19.160;2022-09-03T11:38:05;98740.66;;;22.84;48.14
66857;BME280;53766;50.280;19.160;2022-09-03T11:40:39;98739.84;;;22.83;47.96
66857;BME280;53766;50.280;19.160;2022-09-03T11:46:03;98728.28;;;22.83;48.36
66857;BME280;53766;50.280;19.160;2022-09-03T11:56:25;98730.97;;;22.83;48.92
66857;BME280;53766;50.280;19.160;2022-09-03T12:01:56;98730.72;;;22.84;48.43
66857;BME280;53766;50.280;19.160;2022-09-03T12:04:32;98715.44;;;22.85;48.35
66857;BME280;53766;50.280;19.160;2022-09-03T12:07:37;98723.25;;;22.86;49.05
66857;BME280;53766;50.280;19.160;2022-09-03T12:10:32;98723.25;;;22.86;49.28
66857;BME280;53766;50.280;19.160;2022-09-03T12:16:11;98716.03;;;22.87;49.58
66857;BME280;53766;50.280;19.160;2022-09-03T12:18:34;98712.50;;;22.86;49.04
66857;BME280;53766;50.280;19.160;2022-09-03T12:21:06;98712.50;;;22.86;48.70
66857;BME280;53766;50.280;19.160;2022-09-03T12:23:48;98721.63;;;22.85;48.64
66857;BME280;53766;50.280;19.160;2022-09-03T12:26:19;98718.94;;;22.85;48.28
66857;BME280;53766;50.280;19.160;2022-09-03T12:28:52;98714.59;;;22.84;48.36
66857;BME280;53766;50.280;19.160;2022-09-03T12:31:23;98706.34;;;22.86;48.18
66857;BME280;53766;50.280;19.160;2022-09-03T12:33:54;98701.56;;;22.88;49.27
66857;BME280;53766;50.280;19.160;2022-09-03T12:36:22;98698.66;;;22.89;47.77
66857;BME280;53766;50.280;19.160;2022-09-03T12:38:50;98699.69;;;22.88;49.04
66857;BME280;53766;50.280;19.160;2022-09-03T12:42:05;98691.41;;;22.90;48.95
66857;BME280;53766;50.280;19.160;2022-09-03T12:47:11;98689.53;;;22.90;48.93
66857;BME280;53766;50.280;19.160;2022-09-03T12:50:07;98696.31;;;22.93;48.59
66857;BME280;53766;50.280;19.160;2022-09-03T13:00:31;98692.22;;;22.90;48.87
66857;BME280;53766;50.280;19.160;2022-09-03T13:05:57;98695.97;;;22.89;48.80
66857;BME280;53766;50.280;19.160;2022-09-03T13:08:29;98693.88;;;22.91;48.37
66857;BME280;53766;50.280;19.160;2022-09-03T13:11:00;98685.22;;;22.89;48.17
66857;BME280;53766;50.280;19.160;2022-09-03T13:13:34;98680.06;;;22.88;48.36
66857;BME280;53766;50.280;19.160;2022-09-03T13:29:28;98681.94;;;22.87;48.17
66857;BME280;53766;50.280;19.160;2022-09-03T13:32:10;98673.66;;;22.89;48.01
66857;BME280;53766;50.280;19.160;2022-09-03T13:34:50;98674.00;;;22.92;47.83
66857;BME280;53766;50.280;19.160;2022-09-03T13:37:35;98666.56;;;22.94;46.89
66857;BME280;53766;50.280;19.160;2022-09-03T13:40:30;98664.47;;;22.96;47.24
66857;BME280;53766;50.280;19.160;2022-09-03T13:43:18;98677.88;;;22.96;47.93
66857;BME280;53766;50.280;19.160;2022-09-03T13:45:55;98665.06;;;22.98;47.73
66857;BME280;53766;50.280;19.160;2022-09-03T13:48:35;98654.13;;;23.00;47.58
66857;BME280;53766;50.280;19.160;2022-09-03T13:51:28;98665.22;;;23.04;47.50
66857;BME280;53766;50.280;19.160;2022-09-03T14:00:08;98662.53;;;23.04;47.08
66857;BME280;53766;50.280;19.160;2022-09-03T14:02:53;98660.69;;;23.04;46.75
66857;BME280;53766;50.280;19.160;2022-09-03T14:12:00;98672.00;;;23.06;46.64
66857;BME280;53766;50.280;19.160;2022-09-03T14:17:47;98663.59;;;23.03;46.47
66857;BME280;53766;50.280;19.160;2022-09-03T14:21:02;98658.22;;;23.03;45.95
66857;BME280;53766;50.280;19.160;2022-09-03T14:26:48;98666.88;;;23.05;46.03
66857;BME280;53766;50.280;19.160;2022-09-03T14:29:17;98659.41;;;23.07;46.06
66857;BME280;53766;50.280;19.160;2022-09-03T14:37:25;98666.03;;;23.04;46.04
66857;BME280;53766;50.280;19.160;2022-09-03T14:40:10;98663.38;;;23.04;45.75
66857;BME280;53766;50.280;19.160;2022-09-03T14:45:55;98658.22;;;23.03;45.42
66857;BME280;53766;50.280;19.160;2022-09-03T14:48:52;98659.03;;;23.03;45.36
66857;BME280;53766;50.280;19.160;2022-09-03T15:09:03;98643.97;;;23.02;44.98
66857;BME280;53766;50.280;19.160;2022-09-03T15:11:45;98636.72;;;23.03;44.86
66857;BME280;53766;50.280;19.160;2022-09-03T15:14:21;98633.22;;;23.02;44.70
66857;BME280;53766;50.280;19.160;2022-09-03T15:17:05;98640.44;;;23.02;44.78
66857;BME280;53766;50.280;19.160;2022-09-03T15:20:02;98642.09;;;23.03;45.29
66857;BME280;53766;50.280;19.160;2022-09-03T15:33:32;98644.78;;;23.03;44.76
66857;BME280;53766;50.280;19.160;2022-09-03T15:36:17;98636.72;;;23.03;44.54
66857;BME280;53766;50.280;19.160;2022-09-03T15:39:05;98637.53;;;23.03;44.56
66857;BME280;53766;50.280;19.160;2022-09-03T15:41:57;98637.31;;;23.05;44.34
66857;BME280;53766;50.280;19.160;2022-09-03T15:44:40;98642.69;;;23.05;44.35
66857;BME280;53766;50.280;19.160;2022-09-03T15:47:30;98645.38;;;23.05;44.46
66857;BME280;53766;50.280;19.160;2022-09-03T15:55:36;98645.38;;;23.05;44.35
66857;BME280;53766;50.280;19.160;2022-09-03T16:01:02;98651.56;;;23.05;44.42
66857;BME280;53766;50.280;19.160;2022-09-03T16:03:40;98647.25;;;23.04;44.62
66857;BME280;53766;50.280;19.160;2022-09-03T16:06:24;98648.28;;;23.03;44.43
66857;BME280;53766;50.280;19.160;2022-09-03T16:08:58;98650.16;;;23.03;44.44
66857;BME280;53766;50.280;19.160;2022-09-03T16:11:47;98652.84;;;23.03;44.33
66857;BME280;53766;50.280;19.160;2022-09-03T16:14:37;98655.53;;;23.03;44.71
66857;BME280;53766;50.280;19.160;2022-09-03T16:17:20;98652.84;;;23.03;44.46
66857;BME280;53766;50.280;19.160;2022-09-03T16:20:21;98656.56;;;23.02;44.29
66857;BME280;53766;50.280;19.160;2022-09-03T16:25:44;98657.41;;;23.02;44.44
66857;BME280;53766;50.280;19.160;2022-09-03T16:33:56;98664.03;;;22.99;44.22
66857;BME280;53766;50.280;19.160;2022-09-03T16:36:36;98658.66;;;22.99;43.96
66857;BME280;53766;50.280;19.160;2022-09-03T16:47:46;98655.38;;;22.97;44.25
66857;BME280;53766;50.280;19.160;2022-09-03T17:02:36;98666.56;;;22.94;43.86
66857;BME280;53766;50.280;19.160;2022-09-03T17:05:55;98661.19;;;22.94;43.74
66857;BME280;53766;50.280;19.160;2022-09-03T17:10:42;98655.81;;;22.94;43.74
66857;BME280;53766;50.280;19.160;2022-09-03T17:24:42;98663.28;;;22.92;43.63
66857;BME280;53766;50.280;19.160;2022-09-03T17:27:45;98659.56;;;22.93;43.54
66857;BME280;53766;50.280;19.160;2022-09-03T17:30:20;98663.28;;;22.92;43.69
66857;BME280;53766;50.280;19.160;2022-09-03T17:35:33;98670.31;;;22.93;43.42
66857;BME280;53766;50.280;19.160;2022-09-03T17:49:44;98676.69;;;22.92;43.23
66857;BME280;53766;50.280;19.160;2022-09-03T17:55:02;98672.41;;;22.91;43.18
66857;BME280;53766;50.280;19.160;2022-09-03T17:57:44;98679.38;;;22.92;43.19
66857;BME280;53766;50.280;19.160;2022-09-03T18:00:33;98690.13;;;22.92;43.19
66857;BME280;53766;50.280;19.160;2022-09-03T18:05:56;98684.75;;;22.92;43.10